Time;durP1;ratioP1;P1;durP2;ratioP2;P2;SDS_P1;SDS_P2;PMS_P1;PMS_P2;Temp;Humidity;BMP_temperature;BMP_pressure;BME280_temperature;BME280_humidity;BME280_pressure;Samples;Min_cycle;Max_cycle;Signal;HPM_P1;HPM_P2
2023/06/12 00:02:17;;;;;;;;;5.00;4.67;;;;;19.93;76.77;100157.81;5058489;28;45601;-77
2023/06/12 00:04:44;;;;;;;;;4.33;4.33;;;;;19.82;79.04;100145.59;5035502;28;46912;-79
2023/06/12 00:07:11;;;;;;;;;4.00;4.00;;;;;19.83;79.48;100154.41;5058480;28;45453;-79
2023/06/12 00:09:37;;;;;;;;;4.00;4.00;;;;;19.82;80.07;100152.69;5058129;28;45490;-80
2023/06/12 00:12:02;;;;;;;;;4.00;4.00;;;;;19.73;79.93;100134.25;5058258;28;45359;-76
2023/06/12 00:14:28;;;;;;;;;5.00;5.00;;;;;19.81;80.27;100154.44;5055893;28;46125;-79
2023/06/12 00:16:53;;;;;;;;;6.00;5.00;;;;;19.70;79.82;100124.53;5048215;28;45450;-80
2023/06/12 00:19:20;;;;;;;;;4.33;4.33;;;;;19.89;78.12;100151.66;5039936;28;45428;-78
2023/06/12 00:21:46;;;;;;;;;7.00;5.00;;;;;19.83;78.50;100127.91;5040323;28;45420;-78
2023/06/12 00:24:11;;;;;;;;;6.00;5.00;;;;;19.91;77.99;100133.97;5056628;28;46231;-79
2023/06/12 00:26:40;;;;;;;;;4.00;3.00;;;;;19.86;79.36;100117.28;5039676;28;45424;-78
2023/06/12 00:29:05;;;;;;;;;5.00;5.00;;;;;19.85;78.32;100116.38;5056347;28;45465;-78
2023/06/12 00:31:31;;;;;;;;;4.00;3.00;;;;;19.91;78.12;100123.34;5038660;28;45427;-80
2023/06/12 00:33:58;;;;;;;;;3.00;3.00;;;;;19.63;77.48;100067.22;5058279;28;45444;-80
2023/06/12 00:36:23;;;;;;;;;3.00;3.00;;;;;19.84;77.62;100104.03;5059033;28;45890;-78
2023/06/12 00:38:51;;;;;;;;;3.67;3.67;;;;;19.88;77.47;100096.91;5040765;28;45501;-80
2023/06/12 00:41:17;;;;;;;;;4.00;4.00;;;;;19.84;78.17;100104.03;5059141;28;45251;-77
2023/06/12 00:43:42;;;;;;;;;5.00;3.33;;;;;19.79;77.84;100089.97;5058626;28;45386;-78
2023/06/12 00:46:10;;;;;;;;;3.00;3.00;;;;;19.79;77.74;100079.34;5058629;28;45521;-80
2023/06/12 00:48:38;;;;;;;;;3.00;3.00;;;;;19.86;78.49;100093.41;5058875;28;45353;-80
2023/06/12 00:51:03;;;;;;;;;3.00;3.00;;;;;19.86;78.31;100094.28;5059161;28;45223;-79
2023/06/12 00:53:29;;;;;;;;;4.00;4.00;;;;;19.77;78.19;100077.63;5040235;28;45567;-78
2023/06/12 00:55:55;;;;;;;;;2.67;2.67;;;;;19.76;77.55;100083.84;5040465;28;45542;-80
2023/06/12 00:58:21;;;;;;;;;3.00;3.00;;;;;19.81;77.53;100087.28;5040316;28;45466;-80
2023/06/12 01:00:48;;;;;;;;;3.00;3.00;;;;;19.63;78.44;100073.38;5040759;28;45512;-79
2023/06/12 01:03:14;;;;;;;;;3.00;2.67;;;;;19.61;79.29;100085.78;5039237;28;47734;-80
2023/06/12 01:05:45;;;;;;;;;2.33;2.00;;;;;19.57;79.18;100089.38;5058196;28;45493;-77
2023/06/12 01:08:34;;;;;;;;;5.00;4.00;;;;;19.52;79.34;100085.94;5058687;28;45346;-80
2023/06/12 01:11:08;;;;;;;;;4.00;3.00;;;;;19.53;78.72;100085.00;5058408;28;45251;-79
2023/06/12 01:13:34;;;;;;;;;4.00;3.33;;;;;19.51;78.84;100080.66;5058181;28;46082;-79
2023/06/12 01:16:00;;;;;;;;;3.33;3.33;;;;;19.48;78.17;100073.63;5058327;28;45477;-79
2023/06/12 01:18:26;;;;;;;;;4.00;4.00;;;;;19.50;79.29;100076.22;5057070;28;45397;-80
2023/06/12 01:20:55;;;;;;;;;3.00;3.00;;;;;19.37;79.12;100073.75;5040314;28;45289;-79
2023/06/12 01:23:27;;;;;;;;;4.00;4.00;;;;;19.34;78.91;100075.56;5057932;28;46034;-79
2023/06/12 01:26:34;;;;;;;;;4.00;4.00;;;;;19.31;79.72;100072.97;5039871;28;45629;-79
2023/06/12 01:29:37;;;;;;;;;4.00;4.00;;;;;19.35;79.29;100072.03;5058040;28;45484;-78
2023/06/12 01:32:15;;;;;;;;;4.00;4.00;;;;;19.38;78.89;100069.34;5058300;28;45506;-80
2023/06/12 01:35:09;;;;;;;;;5.00;5.00;;;;;19.31;78.94;100063.25;5057763;28;45458;-80
2023/06/12 01:37:47;;;;;;;;;4.00;3.00;;;;;19.41;78.18;100074.59;5055795;28;46057;-80
2023/06/12 01:40:16;;;;;;;;;3.00;3.00;;;;;19.30;78.99;100065.91;5058340;28;45422;-78
2023/06/12 01:42:42;;;;;;;;;5.33;4.00;;;;;19.32;78.47;100069.41;5057944;28;45481;-78
2023/06/12 01:45:08;;;;;;;;;4.00;4.00;;;;;19.32;78.63;100074.72;5057661;28;46119;-80
2023/06/12 01:47:33;;;;;;;;;4.00;3.33;;;;;19.28;78.99;100080.06;5057842;28;45564;-78
2023/06/12 01:49:59;;;;;;;;;4.00;4.00;;;;;19.20;78.40;100063.41;5057687;28;45255;-80
2023/06/12 01:52:26;;;;;;;;;5.00;4.00;;;;;19.24;78.71;100086.31;5056628;28;45307;-80
2023/06/12 01:54:51;;;;;;;;;4.00;4.00;;;;;19.23;78.84;100076.59;5037580;28;46218;-79
2023/06/12 01:57:20;;;;;;;;;3.33;3.33;;;;;19.19;79.06;100076.66;5057141;28;45312;-79
2023/06/12 01:59:46;;;;;;;;;3.00;3.00;;;;;19.22;78.42;100090.75;5054853;28;45409;-80
2023/06/12 02:02:12;;;;;;;;;3.00;3.00;;;;;19.14;78.84;100079.38;5056693;28;45488;-80
2023/06/12 02:04:38;;;;;;;;;5.00;4.67;;;;;19.13;78.44;100082.91;5051918;28;46429;-79
2023/06/12 02:07:04;;;;;;;;;3.00;3.00;;;;;19.18;78.41;100090.78;5036862;28;45292;-79
2023/06/12 02:09:29;;;;;;;;;4.00;4.00;;;;;19.11;78.26;100081.19;5037121;28;45376;-81
2023/06/12 02:11:56;;;;;;;;;3.67;3.00;;;;;19.15;78.92;100099.66;5037245;28;45236;-80
2023/06/12 02:14:23;;;;;;;;;4.33;3.67;;;;;19.12;79.33;100094.41;5052105;28;45304;-80
2023/06/12 02:16:53;;;;;;;;;3.33;3.33;;;;;18.92;79.29;100056.69;5042825;28;45461;-80
2023/06/12 02:19:22;;;;;;;;;4.67;4.67;;;;;19.08;79.47;100101.50;5048617;28;45556;-80
2023/06/12 02:21:48;;;;;;;;;3.00;3.00;;;;;18.98;78.46;100080.44;5041552;28;45476;-79
2023/06/12 02:24:15;;;;;;;;;6.00;5.00;;;;;18.81;79.70;100085.94;5055108;28;45497;-78
2023/06/12 02:26:41;;;;;;;;;4.00;3.00;;;;;18.77;80.65;100095.63;5042867;28;45539;-79
2023/06/12 02:29:11;;;;;;;;;4.00;4.00;;;;;18.73;81.36;100093.06;5054993;28;45660;-80
2023/06/12 02:31:37;;;;;;;;;4.33;4.33;;;;;18.65;81.33;100077.25;5049226;28;45367;-79
2023/06/12 02:34:02;;;;;;;;;5.33;5.33;;;;;18.45;80.74;100051.00;5036118;28;46126;-79
2023/06/12 02:36:29;;;;;;;;;6.00;5.00;;;;;18.52;81.24;100076.47;5040966;28;45596;-80
2023/06/12 02:38:55;;;;;;;;;6.33;4.67;;;;;18.44;81.96;100075.69;5035075;28;45343;-78
2023/06/12 02:41:22;;;;;;;;;4.67;4.33;;;;;18.39;81.24;100069.59;5034992;28;45740;-79
2023/06/12 02:43:47;;;;;;;;;5.00;4.67;;;;;18.42;81.74;100077.47;5036581;28;47142;-81
2023/06/12 02:46:13;;;;;;;;;5.67;4.67;;;;;18.42;82.54;100075.72;5036046;28;47017;-77
2023/06/12 02:48:38;;;;;;;;;3.00;2.67;;;;;18.49;83.08;100082.69;5049242;28;45472;-78
2023/06/12 02:51:04;;;;;;;;;5.00;4.00;;;;;18.41;82.87;100071.31;5039270;28;45347;-80
2023/06/12 02:53:29;;;;;;;;;5.00;4.67;;;;;18.51;82.77;100081.81;5051156;28;46003;-79
2023/06/12 02:55:55;;;;;;;;;3.67;3.67;;;;;18.55;82.03;100081.75;5018002;28;45478;-80
2023/06/12 02:58:20;;;;;;;;;4.67;4.67;;;;;18.58;82.71;100081.75;5036460;28;45545;-80
2023/06/12 03:00:46;;;;;;;;;5.00;4.67;;;;;18.47;82.14;100073.91;5034964;28;45517;-79
2023/06/12 03:03:12;;;;;;;;;5.33;4.33;;;;;18.47;82.58;100062.44;5036237;28;46034;-80
2023/06/12 03:05:38;;;;;;;;;5.33;4.67;;;;;18.52;81.67;100065.91;5051555;28;45518;-79
2023/06/12 03:08:04;;;;;;;;;4.00;4.00;;;;;18.65;81.19;100082.53;5040050;28;45401;-78
2023/06/12 03:10:30;;;;;;;;;4.67;4.33;;;;;18.63;81.42;100079.03;5047956;28;45332;-79
2023/06/12 03:12:55;;;;;;;;;3.00;2.67;;;;;18.55;81.01;100075.59;5036240;28;45903;-79
2023/06/12 03:15:21;;;;;;;;;4.00;3.67;;;;;18.67;81.23;100091.34;5036265;28;45524;-80
2023/06/12 03:17:47;;;;;;;;;4.00;4.00;;;;;18.73;81.10;100085.97;5037663;28;45456;-79
2023/06/12 03:20:14;;;;;;;;;4.00;3.33;;;;;18.56;81.17;100079.97;5057044;28;45592;-79
2023/06/12 03:22:41;;;;;;;;;3.67;3.00;;;;;18.51;81.17;100080.03;5038458;28;46415;-80
2023/06/12 03:25:08;;;;;;;;;3.67;3.67;;;;;18.54;81.35;100082.63;5056527;28;45321;-79
2023/06/12 03:27:33;;;;;;;;;5.00;5.00;;;;;18.53;81.82;100080.03;5058612;28;45373;-78
2023/06/12 03:29:59;;;;;;;;;3.67;3.67;;;;;18.60;81.53;100089.63;5057614;28;45485;-78
2023/06/12 03:32:25;;;;;;;;;3.67;3.67;;;;;18.64;81.08;100083.41;5057107;28;45534;-77
2023/06/12 03:34:51;;;;;;;;;5.67;5.00;;;;;18.63;80.88;100073.75;5041307;28;45479;-79
2023/06/12 03:37:18;;;;;;;;;3.33;3.00;;;;;18.66;81.11;100086.94;5037586;28;45460;-78
2023/06/12 03:39:43;;;;;;;;;3.67;3.67;;;;;18.60;81.34;100082.59;5022189;28;45683;-76
2023/06/12 03:42:10;;;;;;;;;4.67;4.67;;;;;18.60;81.63;100076.41;5038622;28;46149;-80
2023/06/12 03:44:36;;;;;;;;;3.00;3.00;;;;;18.55;81.54;100068.53;5039232;28;45419;-79
2023/06/12 03:47:02;;;;;;;;;4.00;3.33;;;;;18.56;82.12;100067.66;5038842;28;45585;-77
2023/06/12 03:49:27;;;;;;;;;5.00;4.00;;;;;18.62;82.34;100085.22;5059006;28;45516;-80
2023/06/12 03:51:53;;;;;;;;;5.00;4.00;;;;;18.48;82.64;100062.44;5054306;28;45483;-80
2023/06/12 03:54:19;;;;;;;;;3.00;3.00;;;;;18.56;81.50;100061.47;5047277;28;45589;-75
2023/06/12 03:56:45;;;;;;;;;4.33;4.33;;;;;18.67;81.18;100067.53;5048302;28;45617;-78
2023/06/12 03:59:10;;;;;;;;;3.33;3.33;;;;;18.73;80.83;100072.75;5052106;28;45566;-78
2023/06/12 04:01:38;;;;;;;;;3.33;3.00;;;;;18.86;80.37;100086.75;5049965;28;45628;-77
2023/06/12 04:04:07;;;;;;;;;4.00;4.00;;;;;18.81;81.14;100073.56;5050939;28;45446;-78
2023/06/12 04:06:33;;;;;;;;;3.67;3.00;;;;;18.78;81.31;100070.94;5047183;28;45577;-74
2023/06/12 04:09:01;;;;;;;;;5.00;4.00;;;;;18.83;80.67;100065.63;5049957;28;45468;-78
2023/06/12 04:11:26;;;;;;;;;4.67;4.00;;;;;18.93;80.85;100087.56;5045420;28;46319;-75
2023/06/12 04:13:52;;;;;;;;;5.00;4.00;;;;;18.89;80.58;100070.84;5047499;28;45621;-76
2023/06/12 04:16:18;;;;;;;;;4.00;4.00;;;;;19.03;80.45;100079.47;5037943;28;45397;-78
2023/06/12 04:18:45;;;;;;;;;5.00;3.00;;;;;19.10;80.26;100080.31;5049760;28;45529;-75
2023/06/12 04:21:12;;;;;;;;;4.00;4.00;;;;;19.20;79.80;100084.59;5054309;28;45970;-74
2023/06/12 04:23:41;;;;;;;;;3.67;3.67;;;;;19.17;79.96;100065.22;5045609;28;45504;-77
2023/06/12 04:26:06;;;;;;;;;5.00;5.00;;;;;19.15;79.85;100057.28;5052668;28;45576;-79
2023/06/12 04:28:38;;;;;;;;;5.00;4.00;;;;;19.32;79.50;100077.34;5054061;28;45502;-79
2023/06/12 04:31:04;;;;;;;;;5.00;5.00;;;;;19.37;79.39;100076.41;5033779;28;45569;-76
2023/06/12 04:33:30;;;;;;;;;2.00;2.00;;;;;19.39;78.82;100076.38;5043753;28;45466;-79
2023/06/12 04:36:01;;;;;;;;;4.67;4.00;;;;;19.44;78.99;100079.88;5046204;28;45529;-79
2023/06/12 04:38:38;;;;;;;;;5.00;5.00;;;;;19.46;78.96;100078.94;5038726;28;45328;-74
2023/06/12 04:41:05;;;;;;;;;6.00;6.00;;;;;19.44;78.92;100075.44;5047734;28;45478;-78
2023/06/12 04:43:31;;;;;;;;;5.33;4.33;;;;;19.44;79.28;100072.78;5052047;28;45346;-74
2023/06/12 04:45:57;;;;;;;;;5.33;5.00;;;;;19.48;79.26;100076.28;5044035;28;45321;-77
2023/06/12 04:48:23;;;;;;;;;3.00;3.00;;;;;19.54;78.43;100070.88;5051985;28;45477;-76
2023/06/12 04:50:54;;;;;;;;;4.67;4.00;;;;;19.60;78.49;100069.94;5056926;28;45379;-79
2023/06/12 04:53:27;;;;;;;;;3.00;3.00;;;;;19.65;77.83;100078.66;5044170;28;45494;-76
2023/06/12 04:55:54;;;;;;;;;2.67;2.67;;;;;19.64;77.58;100064.53;5050670;28;45452;-74
2023/06/12 04:58:20;;;;;;;;;4.00;4.00;;;;;19.76;78.08;100075.91;5038127;28;45475;-75
2023/06/12 05:00:47;;;;;;;;;4.00;4.00;;;;;19.66;78.79;100081.31;5043658;28;46211;-78
2023/06/12 05:03:16;;;;;;;;;6.00;5.00;;;;;19.58;79.39;100088.50;5034232;28;45508;-75
2023/06/12 05:05:42;;;;;;;;;3.00;3.00;;;;;19.63;78.99;100086.63;5048492;28;45430;-76
2023/06/12 05:08:08;;;;;;;;;4.00;3.33;;;;;19.67;78.42;100071.56;5028889;28;45444;-73
2023/06/12 05:10:34;;;;;;;;;4.33;4.00;;;;;19.77;78.11;100080.28;5048923;28;46198;-74
2023/06/12 05:12:59;;;;;;;;;6.00;5.00;;;;;19.73;77.59;100076.81;5046212;28;45497;-76
2023/06/12 05:15:25;;;;;;;;;5.00;5.00;;;;;19.70;77.83;100087.44;5054351;28;45530;-76
2023/06/12 05:17:50;;;;;;;;;5.00;5.00;;;;;19.73;78.19;100087.41;5038289;28;45951;-80
2023/06/12 05:20:16;;;;;;;;;4.67;4.00;;;;;19.79;77.87;100087.31;5028679;28;46260;-80
2023/06/12 05:22:41;;;;;;;;;5.00;5.00;;;;;19.62;78.06;100046.94;5051468;28;45508;-78
2023/06/12 05:25:07;;;;;;;;;4.00;4.00;;;;;19.89;77.81;100074.78;5053293;28;45377;-76
2023/06/12 05:27:33;;;;;;;;;3.00;3.00;;;;;19.88;77.30;100070.41;5019467;28;45567;-76
2023/06/12 05:29:59;;;;;;;;;5.00;4.00;;;;;20.00;76.99;100078.16;5037556;28;45470;-75
2023/06/12 05:32:25;;;;;;;;;5.00;5.00;;;;;19.95;77.07;100074.69;5051449;28;45476;-74
2023/06/12 05:34:51;;;;;;;;;3.67;3.67;;;;;20.01;76.82;100071.94;5040702;28;45505;-76
2023/06/12 05:37:16;;;;;;;;;3.00;3.00;;;;;20.12;77.03;100078.88;5051911;28;45700;-78
2023/06/12 05:39:42;;;;;;;;;4.33;4.00;;;;;20.24;76.37;100084.81;5037128;28;45958;-78
2023/06/12 05:42:07;;;;;;;;;6.00;6.00;;;;;20.18;76.53;100081.41;5050255;28;45459;-76
2023/06/12 05:44:33;;;;;;;;;6.33;4.67;;;;;20.13;76.21;100060.25;5056277;28;45369;-80
2023/06/12 05:46:58;;;;;;;;;4.00;4.00;;;;;20.25;76.68;100075.97;5052343;28;45460;-76
2023/06/12 05:49:24;;;;;;;;;5.33;5.33;;;;;20.41;76.14;100091.59;5036330;28;46022;-76
2023/06/12 05:51:49;;;;;;;;;5.00;5.00;;;;;20.44;75.92;100087.13;5050912;28;45610;-76
2023/06/12 05:54:15;;;;;;;;;4.00;4.00;;;;;20.48;76.23;100087.94;5055436;28;45462;-78
2023/06/12 05:56:40;;;;;;;;;4.67;4.00;;;;;20.58;76.18;100086.88;5041832;28;45535;-78
2023/06/12 05:59:06;;;;;;;;;3.67;3.67;;;;;20.53;76.56;100078.16;5056686;28;46022;-79
2023/06/12 06:01:31;;;;;;;;;4.67;4.00;;;;;20.59;76.23;100075.41;5044371;28;46220;-76
2023/06/12 06:04:00;;;;;;;;;6.00;4.00;;;;;20.75;75.90;100083.97;5036935;28;45551;-79
2023/06/12 06:06:26;;;;;;;;;5.00;5.00;;;;;20.86;76.03;100095.22;5025837;28;45550;-78
2023/06/12 06:08:51;;;;;;;;;6.00;4.00;;;;;20.95;74.14;100093.28;5049400;28;46213;-77
2023/06/12 06:11:17;;;;;;;;;3.00;3.00;;;;;21.01;74.06;100088.75;5043668;28;45592;-78
2023/06/12 06:13:43;;;;;;;;;5.00;4.00;;;;;21.16;73.61;100082.22;5047431;28;45479;-75
2023/06/12 06:16:10;;;;;;;;;5.00;5.00;;;;;21.34;72.36;100077.44;5041308;28;45538;-73
2023/06/12 06:18:37;;;;;;;;;3.00;3.00;;;;;21.82;71.68;100079.91;5049163;28;45500;-81
2023/06/12 06:21:03;;;;;;;;;3.33;3.33;;;;;22.32;69.73;100075.19;5047756;28;45811;-77
2023/06/12 06:23:28;;;;;;;;;4.00;3.67;;;;;22.80;68.50;100073.88;5034993;28;45724;-75
2023/06/12 06:25:54;;;;;;;;;5.00;4.00;;;;;22.83;67.86;100065.81;5049395;28;45619;-76
2023/06/12 06:28:20;;;;;;;;;4.67;4.00;;;;;22.86;68.29;100059.50;5050372;28;46111;-77
2023/06/12 06:30:46;;;;;;;;;5.00;4.00;;;;;23.09;67.61;100074.88;5052796;28;45359;-75
2023/06/12 06:33:11;;;;;;;;;3.00;2.67;;;;;23.17;66.98;100065.72;5028603;28;45432;-78
2023/06/12 06:35:37;;;;;;;;;3.33;2.00;;;;;23.36;66.79;100070.53;5051586;28;45569;-75
2023/06/12 06:38:02;;;;;;;;;3.33;3.33;;;;;23.49;65.49;100063.00;5044852;28;46300;-77
2023/06/12 06:40:28;;;;;;;;;4.00;4.00;;;;;23.74;65.20;100068.47;5042306;28;45546;-72
2023/06/12 06:42:53;;;;;;;;;3.00;3.00;;;;;23.85;64.78;100054.81;5036807;28;45612;-72
2023/06/12 06:45:20;;;;;;;;;2.00;2.00;;;;;24.11;64.10;100068.13;5047561;28;45439;-74
2023/06/12 06:47:45;;;;;;;;;4.00;3.33;;;;;24.11;62.46;100057.47;5055637;28;45430;-76
2023/06/12 06:50:11;;;;;;;;;4.67;4.33;;;;;24.15;63.69;100063.56;5052460;28;45578;-76
2023/06/12 06:52:37;;;;;;;;;4.00;4.00;;;;;24.17;63.01;100061.72;5038581;28;45270;-73
2023/06/12 06:55:02;;;;;;;;;4.00;4.00;;;;;24.42;63.14;100070.63;5046372;28;45556;-75
2023/06/12 06:57:28;;;;;;;;;5.00;4.33;;;;;24.78;63.05;100062.28;5033979;28;46694;-79
2023/06/12 06:59:55;;;;;;;;;5.33;5.33;;;;;25.25;61.62;100065.91;5047831;28;45454;-76
2023/06/12 07:02:22;;;;;;;;;5.00;4.00;;;;;25.80;59.96;100061.97;5047664;28;45377;-74
2023/06/12 07:04:48;;;;;;;;;3.00;3.00;;;;;26.28;59.29;100041.25;5050659;28;45512;-79
2023/06/12 07:07:14;;;;;;;;;4.00;3.33;;;;;26.71;56.62;100051.91;5049144;28;45462;-76
2023/06/12 07:09:39;;;;;;;;;3.67;3.67;;;;;27.40;54.10;100058.59;5038165;28;45479;-73
2023/06/12 07:12:05;;;;;;;;;2.33;2.33;;;;;27.46;53.19;100045.78;5042207;28;45386;-78
2023/06/12 07:14:31;;;;;;;;;4.00;4.00;;;;;28.55;52.30;100064.56;5054271;28;45542;-79
2023/06/12 07:16:56;;;;;;;;;2.67;2.67;;;;;30.81;49.43;100031.09;5046646;28;46463;-80
2023/06/12 07:19:22;;;;;;;;;3.00;2.00;;;;;33.08;43.11;100040.25;5058241;28;45527;-79
2023/06/12 07:21:48;;;;;;;;;4.33;3.33;;;;;34.90;39.66;100037.44;5037285;28;45505;-79
2023/06/12 07:24:17;;;;;;;;;1.67;1.67;;;;;36.21;39.47;100052.06;5043346;28;45503;-82
2023/06/12 07:26:44;;;;;;;;;3.67;2.33;;;;;36.16;36.16;100031.69;5040009;28;47127;-78
2023/06/12 07:29:10;;;;;;;;;1.00;1.00;;;;;37.90;33.35;100046.22;5045354;28;45379;-79
2023/06/12 07:31:36;;;;;;;;;2.00;2.00;;;;;37.39;35.52;100049.00;5030774;28;45582;-79
2023/06/12 07:34:02;;;;;;;;;1.33;1.33;;;;;37.18;35.60;100049.06;5053047;28;45545;-75
2023/06/12 07:36:31;;;;;;;;;1.00;1.00;;;;;38.39;33.67;100045.22;5050762;28;46639;-77
2023/06/12 07:38:57;;;;;;;;;2.00;2.00;;;;;38.92;31.96;100043.84;5048743;28;45840;-77
2023/06/12 07:41:23;;;;;;;;;2.00;2.00;;;;;37.56;34.30;100049.31;5049057;28;45268;-75
2023/06/12 07:43:49;;;;;;;;;2.00;2.00;;;;;37.91;35.44;100031.59;5041042;28;45601;-75
2023/06/12 07:46:15;;;;;;;;;1.00;1.00;;;;;39.21;30.97;100006.50;5057534;28;45464;-77
2023/06/12 07:48:41;;;;;;;;;2.00;1.00;;;;;39.05;31.26;100031.72;5030703;28;45514;-75
2023/06/12 07:51:06;;;;;;;;;2.00;2.00;;;;;37.73;33.03;100029.56;5036741;28;45567;-75
2023/06/12 07:53:32;;;;;;;;;1.00;1.00;;;;;37.28;33.44;100030.03;5051871;28;45434;-76
2023/06/12 07:55:58;;;;;;;;;2.00;2.00;;;;;37.25;33.36;100040.34;5049868;28;45973;-75
2023/06/12 07:58:24;;;;;;;;;1.67;1.67;;;;;36.31;33.86;100034.94;5047899;28;45793;-75
2023/06/12 08:00:55;;;;;;;;;1.00;1.00;;;;;35.11;35.46;100006.84;5037296;28;45506;-76
2023/06/12 08:03:24;;;;;;;;;2.00;1.00;;;;;34.29;35.95;100044.97;5040087;28;45626;-77
2023/06/12 08:05:53;;;;;;;;;1.00;1.00;;;;;33.66;37.77;100055.97;5049186;28;46133;-75
2023/06/12 08:08:20;;;;;;;;;1.00;1.00;;;;;33.02;37.23;100032.56;5020296;28;45489;-74
2023/06/12 08:10:45;;;;;;;;;1.33;1.33;;;;;33.17;37.27;100046.03;5038202;28;45395;-75
2023/06/12 08:13:11;;;;;;;;;2.00;2.00;;;;;33.78;37.06;100044.22;5053380;28;45649;-74
2023/06/12 08:15:37;;;;;;;;;3.00;2.00;;;;;33.64;36.92;100052.50;5042571;28;45922;-74
2023/06/12 08:18:02;;;;;;;;;2.00;1.67;;;;;35.06;36.18;100054.22;5057490;28;45360;-74
2023/06/12 08:20:30;;;;;;;;;2.00;2.00;;;;;37.01;32.72;100050.56;5037936;28;45458;-74
2023/06/12 08:22:56;;;;;;;;;2.00;2.00;;;;;37.20;33.30;100055.22;5047240;28;45362;-75
2023/06/12 08:25:22;;;;;;;;;3.00;2.33;;;;;37.81;32.20;100042.50;5048773;28;45975;-75
2023/06/12 08:27:48;;;;;;;;;3.00;2.67;;;;;39.16;29.53;100056.97;5042641;28;45556;-76
2023/06/12 08:30:14;;;;;;;;;2.67;2.00;;;;;40.61;28.49;100047.00;5057447;28;45435;-76
2023/06/12 08:32:40;;;;;;;;;1.67;1.67;;;;;40.66;29.28;100044.66;5043114;28;45579;-76
2023/06/12 08:35:05;;;;;;;;;4.00;3.00;;;;;41.91;26.62;100048.63;5043107;28;46985;-76
2023/06/12 08:37:32;;;;;;;;;1.00;1.00;;;;;41.53;27.36;100040.81;5037956;28;45533;-76
2023/06/12 08:39:58;;;;;;;;;3.00;3.00;;;;;40.35;29.04;100045.09;5038012;28;45473;-76
2023/06/12 08:42:23;;;;;;;;;2.67;2.67;;;;;39.32;30.83;100045.41;5038081;28;45367;-76
2023/06/12 08:44:57;;;;;;;;;3.67;3.67;;;;;38.33;31.36;100034.03;5049731;28;46859;-75
2023/06/12 08:47:23;;;;;;;;;3.33;2.33;;;;;37.29;32.51;100039.09;5038105;28;45380;-75
2023/06/12 08:49:50;;;;;;;;;3.00;2.33;;;;;36.37;33.09;100029.84;5036420;28;45522;-76
2023/06/12 08:52:18;;;;;;;;;3.00;3.00;;;;;35.55;34.34;100043.06;5052494;28;45770;-75
2023/06/12 08:54:45;;;;;;;;;0.33;0.33;;;;;36.27;34.14;100039.75;5041886;28;46237;-76
2023/06/12 08:57:11;;;;;;;;;3.67;3.67;;;;;37.74;31.92;100041.34;5044269;28;45670;-76
2023/06/12 08:59:37;;;;;;;;;4.33;3.67;;;;;38.99;30.15;100027.72;5048189;28;45544;-76
2023/06/12 09:02:04;;;;;;;;;3.00;3.00;;;;;39.88;29.77;100037.19;5039159;28;45544;-75
2023/06/12 09:04:50;;;;;;;;;4.00;3.33;;;;;40.00;27.18;100041.38;5032685;28;48254;-76
2023/06/12 09:07:17;;;;;;;;;3.67;3.67;;;;;40.61;27.28;100031.47;5042595;28;45910;-75
2023/06/12 09:09:45;;;;;;;;;3.00;3.00;;;;;41.44;27.07;100039.06;5056709;28;45319;-75
2023/06/12 09:12:13;;;;;;;;;4.00;4.00;;;;;42.20;26.60;100033.56;5039827;28;45557;-76
2023/06/12 09:14:45;;;;;;;;;2.67;2.67;;;;;42.93;26.77;100040.03;5043140;28;46088;-76
2023/06/12 09:17:11;;;;;;;;;2.33;2.00;;;;;42.07;26.31;100028.63;5053123;28;45526;-75
2023/06/12 09:19:43;;;;;;;;;3.00;2.00;;;;;41.01;27.70;100037.34;5048298;28;45444;-76
2023/06/12 09:22:09;;;;;;;;;4.00;3.00;;;;;39.87;28.41;100039.03;5039212;28;45610;-77
2023/06/12 09:24:35;;;;;;;;;3.00;3.00;;;;;38.82;29.69;100034.81;5047598;28;45603;-76
2023/06/12 09:27:02;;;;;;;;;3.00;3.00;;;;;38.20;31.24;100037.06;5036005;28;45561;-75
2023/06/12 09:29:35;;;;;;;;;3.00;3.00;;;;;37.57;31.75;100045.59;5046753;28;45512;-76
2023/06/12 09:32:03;;;;;;;;;2.67;2.67;;;;;36.76;32.83;100019.19;5020061;28;45507;-75
2023/06/12 09:34:31;;;;;;;;;3.00;2.67;;;;;36.31;33.93;100021.31;5041719;28;47718;-76
2023/06/12 09:36:58;;;;;;;;;3.00;2.33;;;;;35.83;34.92;100025.34;5037270;28;45550;-75
2023/06/12 09:39:28;;;;;;;;;4.67;4.67;;;;;35.72;34.96;100023.56;5055084;28;45382;-75
2023/06/12 09:41:56;;;;;;;;;5.00;5.00;;;;;35.99;35.28;100038.50;5056429;28;45474;-75
2023/06/12 09:44:28;;;;;;;;;3.33;3.33;;;;;35.91;35.00;100019.28;5047199;28;45492;-75
2023/06/12 09:47:04;;;;;;;;;4.00;3.33;;;;;35.74;35.20;100037.88;5041086;28;45794;-75
2023/06/12 09:49:30;;;;;;;;;5.00;4.33;;;;;35.32;35.68;100047.72;5023017;28;45447;-76
2023/06/12 09:52:00;;;;;;;;;5.00;5.00;;;;;34.74;36.94;100050.50;5051195;28;45660;-76
2023/06/12 09:54:29;;;;;;;;;6.00;5.00;;;;;34.29;37.08;100039.53;5047981;28;46077;-75
2023/06/12 09:56:57;;;;;;;;;3.67;3.67;;;;;33.86;37.93;100035.50;5032929;28;45582;-75
2023/06/12 09:59:27;;;;;;;;;5.00;4.33;;;;;33.46;37.88;100023.06;5055314;28;45353;-72
2023/06/12 10:02:00;;;;;;;;;3.00;3.00;;;;;33.11;38.82;100046.44;5054059;28;45484;-75
2023/06/12 10:04:54;;;;;;;;;4.67;4.67;;;;;32.56;39.50;100048.50;5052718;28;46085;-75
2023/06/12 10:07:26;;;;;;;;;4.00;4.00;;;;;32.74;39.65;100035.53;5052827;28;45714;-81
2023/06/12 10:09:53;;;;;;;;;5.67;5.33;;;;;32.97;39.75;100031.16;5050766;28;45830;-76
2023/06/12 10:12:22;;;;;;;;;5.00;4.33;;;;;33.29;39.70;100026.19;5054732;28;45751;-74
2023/06/12 10:14:50;;;;;;;;;5.00;5.00;;;;;34.22;38.37;100026.47;5036334;28;45553;-74
2023/06/12 10:17:16;;;;;;;;;3.33;3.33;;;;;34.87;36.60;100026.81;5053485;28;45454;-76
2023/06/12 10:19:47;;;;;;;;;4.33;4.00;;;;;35.28;36.89;100029.91;5039767;28;45583;-75
2023/06/12 10:22:13;;;;;;;;;4.00;4.00;;;;;35.72;35.10;100025.41;5032379;28;45494;-75
2023/06/12 10:24:40;;;;;;;;;3.00;3.00;;;;;34.98;37.00;100032.25;5047700;28;45384;-75
2023/06/12 10:27:06;;;;;;;;;3.00;3.00;;;;;34.36;36.81;99998.28;5050233;28;45499;-75
2023/06/12 10:29:38;;;;;;;;;3.00;3.00;;;;;34.14;37.20;100028.91;5035745;28;45344;-75
2023/06/12 10:32:08;;;;;;;;;4.50;4.50;;;;;33.37;37.82;100026.47;5036812;28;45318;-75
2023/06/12 10:34:40;;;;;;;;;3.33;3.33;;;;;33.03;38.59;100028.03;5017791;28;46983;-75
2023/06/12 10:37:28;;;;;;;;;3.33;3.33;;;;;32.00;40.85;100040.56;5040780;28;45496;-75
2023/06/12 10:40:15;;;;;;;;;4.67;4.67;;;;;31.30;42.40;100038.81;5045649;28;45456;-75
2023/06/12 10:42:50;;;;;;;;;4.00;3.67;;;;;31.12;42.66;100044.44;5051978;28;45214;-75
2023/06/12 10:45:26;;;;;;;;;4.33;4.00;;;;;30.51;44.08;100045.53;5018149;28;45447;-75
2023/06/12 10:48:17;;;;;;;;;5.00;4.67;;;;;30.23;43.98;100041.78;5035396;28;45544;-75
2023/06/12 10:50:52;;;;;;;;;4.00;4.00;;;;;29.82;45.05;100039.69;5038896;28;45400;-75
2023/06/12 10:53:29;;;;;;;;;4.00;4.00;;;;;29.71;45.30;100050.19;5041524;28;45356;-75
2023/06/12 10:56:03;;;;;;;;;10.33;9.00;;;;;29.40;46.38;100049.22;5036202;28;46346;-75
2023/06/12 10:58:39;;;;;;;;;5.00;5.00;;;;;29.20;46.44;100058.41;5036436;28;45487;-74
2023/06/12 11:01:10;;;;;;;;;4.00;4.00;;;;;29.09;46.27;100050.91;5036380;28;45500;-75
2023/06/12 11:03:43;;;;;;;;;5.00;5.00;;;;;29.02;46.90;100037.88;5041169;28;45493;-75
2023/06/12 11:06:13;;;;;;;;;4.00;4.00;;;;;29.27;47.08;100050.91;5034502;28;47986;-75
2023/06/12 11:08:43;;;;;;;;;3.00;3.00;;;;;29.46;46.38;100046.19;5047200;28;45607;-75
2023/06/12 11:11:13;;;;;;;;;5.33;4.33;;;;;29.57;46.68;100025.91;5038507;28;45371;-75
2023/06/12 11:13:41;;;;;;;;;4.00;4.00;;;;;29.85;46.39;100044.91;5036057;28;45264;-74
2023/06/12 11:16:12;;;;;;;;;3.67;3.33;;;;;29.91;45.63;100023.00;5053239;28;46684;-75
2023/06/12 11:18:37;;;;;;;;;7.00;5.00;;;;;29.70;45.55;100030.47;5042500;28;45296;-75
2023/06/12 11:21:03;;;;;;;;;4.33;3.67;;;;;29.38;46.16;100036.81;5036113;28;45411;-75
2023/06/12 11:23:29;;;;;;;;;5.00;4.00;;;;;29.45;45.73;100031.03;5035027;28;45607;-74
2023/06/12 11:25:59;;;;;;;;;6.00;6.00;;;;;29.42;45.63;100030.31;5035742;28;45506;-75
2023/06/12 11:28:27;;;;;;;;;5.00;5.00;;;;;29.53;46.58;100026.06;5037044;28;45557;-75